LFBL/LIG METAR and TAF weather

Enter ICAO airport designator
Station Type Date Time Source
LFBL METAR 2020/07/04 10:00 UTC NOAA

LFBL 041000Z AUTO 26008KT 230V320 9999 BKN027 17/11 Q1025 NOSIG


Station Type Date Time Source
LFBL Decoded METAR 2020/07/04 10:00 UTC NOAA

Limoges, France (LFBL) 45-52N 001-11E 402M
Jul 04, 2020 - 06:00 AM EDT / 2020.07.04 1000 UTC
Wind: from the W (260 degrees) at 9 MPH (8 KT) (direction variable):0
Visibility: greater than 7 mile(s):0
Sky conditions: mostly cloudy
Temperature: 62 F (17 C)
Dew Point: 51 F (11 C)
Relative Humidity: 67%
Pressure (altimeter): 30.27 in. Hg (1025 hPa)
ob: LFBL 041000Z AUTO 26008KT 230V320 9999 BKN027 17/11 Q1025 NOSIG
cycle: 10

Station Type Date Time Source
LFBL TAF 2020/07/04 06:57 UTC NOAA

TAF
AMD LFBL 040546Z 0406/0506 27004KT 9999 OVC005
BECMG 0406/0408 SCT012
BECMG 0423/0501 BKN007

Example: see airport list